createdAt,value
2022-11-09T00:01:39.083Z,4.28
2022-11-09T00:04:06.776Z,4.40
2022-11-09T00:06:34.613Z,5.00
2022-11-09T00:09:07.446Z,5.03
2022-11-09T00:11:36.299Z,5.35
2022-11-09T00:14:02.885Z,5.40
2022-11-09T00:16:29.185Z,5.70
2022-11-09T00:18:55.930Z,5.22
2022-11-09T00:21:24.234Z,5.03
2022-11-09T00:23:51.289Z,5.03
2022-11-09T00:26:19.259Z,5.25
2022-11-09T00:28:45.927Z,4.60
2022-11-09T00:31:16.147Z,5.47
2022-11-09T00:33:42.475Z,5.30
2022-11-09T00:36:14.019Z,5.97
2022-11-09T00:38:40.899Z,4.60
2022-11-09T00:41:09.185Z,5.50
2022-11-09T00:43:36.118Z,5.65
2022-11-09T00:46:03.106Z,5.78
2022-11-09T00:48:29.947Z,5.80
2022-11-09T00:50:57.625Z,5.72
2022-11-09T00:53:25.358Z,6.20
2022-11-09T00:56:00.576Z,6.00
2022-11-09T00:58:29.523Z,5.32
2022-11-09T01:00:57.625Z,5.05
2022-11-09T01:06:53.361Z,5.07
2022-11-09T01:09:19.704Z,5.20
2022-11-09T01:11:46.031Z,5.32
2022-11-09T01:14:12.339Z,5.15
2022-11-09T01:16:39.035Z,5.28
2022-11-09T01:19:05.774Z,5.78
2022-11-09T01:21:32.391Z,6.00
2022-11-09T01:23:59.086Z,5.50
2022-11-09T01:26:25.438Z,6.20
2022-11-09T01:28:51.780Z,6.05
2022-11-09T01:31:20.167Z,6.05
2022-11-09T01:33:46.905Z,5.97
2022-11-09T01:36:16.370Z,6.20
2022-11-09T01:38:43.516Z,6.43
2022-11-09T01:41:14.824Z,6.18
2022-11-09T01:43:41.244Z,6.03
2022-11-09T01:46:20.544Z,6.10
2022-11-09T01:48:50.012Z,6.38
2022-11-09T01:51:23.816Z,5.90
2022-11-09T01:53:54.960Z,6.28
2022-11-09T01:56:21.443Z,5.85
2022-11-09T01:58:55.305Z,6.55
2022-11-09T02:01:21.884Z,6.30
2022-11-09T02:04:20.091Z,6.03
2022-11-09T02:06:47.364Z,5.43
2022-11-09T02:09:26.539Z,6.30
2022-11-09T02:11:53.060Z,5.75
2022-11-09T02:14:21.824Z,6.05
2022-11-09T02:16:48.625Z,6.20
2022-11-09T02:19:14.983Z,5.68
2022-11-09T02:21:41.511Z,5.75
2022-11-09T02:24:07.970Z,4.97
2022-11-09T02:26:43.532Z,5.75
2022-11-09T02:29:13.381Z,4.97
2022-11-09T02:31:45.275Z,5.20
2022-11-09T02:34:15.164Z,5.50
2022-11-09T02:36:43.440Z,5.72
2022-11-09T02:39:10.810Z,6.20
2022-11-09T02:41:54.419Z,6.65
2022-11-09T02:44:20.897Z,5.93
2022-11-09T02:46:47.240Z,6.40
2022-11-09T02:49:13.577Z,6.45
2022-11-09T02:51:39.887Z,6.78
2022-11-09T02:54:06.271Z,6.80
2022-11-09T02:56:32.634Z,6.22
2022-11-09T02:58:58.938Z,5.82
2022-11-09T03:01:25.397Z,5.30
2022-11-09T03:03:51.741Z,5.90
2022-11-09T03:06:18.075Z,5.05
2022-11-09T03:08:44.394Z,5.70
2022-11-09T03:11:10.737Z,5.32
2022-11-09T03:13:37.316Z,5.20
2022-11-09T03:16:05.863Z,4.32
2022-11-09T03:18:32.211Z,3.97
2022-11-09T03:21:03.391Z,4.47
2022-11-09T03:23:30.125Z,4.85
2022-11-09T03:25:56.530Z,4.28
2022-11-09T03:28:22.873Z,4.85
2022-11-09T03:30:49.271Z,5.25
2022-11-09T03:33:15.587Z,5.32
2022-11-09T03:35:43.631Z,5.32
2022-11-09T03:38:10.127Z,5.22
2022-11-09T03:40:36.468Z,5.65
2022-11-09T03:43:02.869Z,5.75
2022-11-09T03:45:29.210Z,6.55
2022-11-09T03:48:00.358Z,6.20
2022-11-09T03:50:33.023Z,7.38
2022-11-09T03:53:01.845Z,6.88
2022-11-09T03:55:28.716Z,6.97
2022-11-09T03:57:55.352Z,7.47
2022-11-09T04:00:22.984Z,8.20
2022-11-09T04:02:49.826Z,7.07
2022-11-09T04:05:16.249Z,7.60
2022-11-09T04:07:50.742Z,8.07
2022-11-09T04:10:17.342Z,7.55
2022-11-09T04:12:44.443Z,7.88
2022-11-09T04:15:11.798Z,7.97
2022-11-09T04:17:38.716Z,9.07
2022-11-09T04:20:07.446Z,9.15
2022-11-09T04:22:34.335Z,9.57
2022-11-09T04:25:00.923Z,10.48
2022-11-09T04:27:27.288Z,9.93
2022-11-09T04:29:53.694Z,9.88
2022-11-09T04:32:20.031Z,11.32
2022-11-09T04:34:46.371Z,10.80
2022-11-09T04:37:12.671Z,10.98
2022-11-09T04:39:39.004Z,10.30
2022-11-09T04:42:05.455Z,10.82
2022-11-09T04:44:31.897Z,10.43
2022-11-09T04:46:58.203Z,11.35
2022-11-09T04:49:24.717Z,10.93
2022-11-09T04:51:51.107Z,10.50
2022-11-09T04:54:17.411Z,10.70
2022-11-09T04:56:43.740Z,10.18
2022-11-09T04:59:10.063Z,9.98
2022-11-09T05:01:36.339Z,9.68
2022-11-09T05:04:02.734Z,10.27
2022-11-09T05:06:32.141Z,9.95
2022-11-09T05:09:07.012Z,11.90
2022-11-09T05:11:35.210Z,9.95
2022-11-09T05:14:02.070Z,10.75
2022-11-09T05:16:29.294Z,11.30
2022-11-09T05:18:55.796Z,12.05
2022-11-09T05:21:22.175Z,11.88
2022-11-09T05:24:00.694Z,12.55
2022-11-09T05:26:35.847Z,11.07
2022-11-09T05:29:04.872Z,11.43
2022-11-09T05:31:31.337Z,10.90
2022-11-09T05:33:59.254Z,10.75
2022-11-09T05:36:27.713Z,11.15
2022-11-09T05:38:54.698Z,12.50
2022-11-09T05:41:21.271Z,11.55
2022-11-09T05:43:48.141Z,11.85
2022-11-09T05:46:15.500Z,12.55
2022-11-09T05:48:43.114Z,11.30
2022-11-09T05:51:12.619Z,13.05
2022-11-09T05:53:42.401Z,11.75
2022-11-09T05:56:13.434Z,12.27
2022-11-09T05:58:41.172Z,11.98
2022-11-09T06:01:18.948Z,12.48
2022-11-09T06:03:45.364Z,12.43
2022-11-09T06:06:14.122Z,12.85
2022-11-09T06:08:40.793Z,12.90
2022-11-09T06:11:09.823Z,12.52
2022-11-09T06:13:36.763Z,12.88
2022-11-09T06:16:05.235Z,12.18
2022-11-09T06:18:33.062Z,12.30
2022-11-09T06:21:01.929Z,12.05
2022-11-09T06:23:29.325Z,11.20
2022-11-09T06:25:57.929Z,12.00
2022-11-09T06:28:24.249Z,12.35
2022-11-09T06:30:50.549Z,12.15
2022-11-09T06:33:17.046Z,13.15
2022-11-09T06:35:43.562Z,12.38
2022-11-09T06:38:11.430Z,12.20
2022-11-09T06:40:37.885Z,12.48
2022-11-09T06:43:04.203Z,12.57
2022-11-09T06:45:31.073Z,12.68
2022-11-09T06:47:59.354Z,13.27
2022-11-09T06:50:26.772Z,13.43
2022-11-09T06:53:01.398Z,14.20
2022-11-09T06:55:29.398Z,13.60
2022-11-09T06:57:56.239Z,13.13
2022-11-09T07:00:24.307Z,13.38
2022-11-09T07:02:51.252Z,13.50
2022-11-09T07:05:17.979Z,12.80
2022-11-09T07:07:44.456Z,13.32
2022-11-09T07:10:11.704Z,12.68
2022-11-09T07:12:38.018Z,13.25
2022-11-09T07:15:05.895Z,12.95
2022-11-09T07:17:33.328Z,13.40
2022-11-09T07:20:00.245Z,12.30
2022-11-09T07:22:29.548Z,12.20
2022-11-09T07:24:55.915Z,12.15
2022-11-09T07:27:27.500Z,11.45
2022-11-09T07:29:54.538Z,10.68
2022-11-09T07:32:24.596Z,12.27
2022-11-09T07:35:02.174Z,11.20
2022-11-09T07:37:28.649Z,11.13
2022-11-09T07:39:54.971Z,10.88
2022-11-09T07:42:21.355Z,10.48
2022-11-09T07:44:47.651Z,9.30
2022-11-09T07:47:18.183Z,9.52
2022-11-09T07:49:45.171Z,9.85
2022-11-09T07:52:12.002Z,9.82
2022-11-09T07:54:39.401Z,9.85
2022-11-09T07:57:06.554Z,9.60
2022-11-09T07:59:33.288Z,10.10
2022-11-09T08:01:59.699Z,9.75
2022-11-09T08:04:26.138Z,9.85
2022-11-09T08:06:53.258Z,9.32
2022-11-09T08:09:19.916Z,9.52
2022-11-09T08:11:46.368Z,8.23
2022-11-09T08:14:12.738Z,7.25
2022-11-09T08:16:39.364Z,6.70
2022-11-09T08:19:05.724Z,6.03
2022-11-09T08:21:32.115Z,5.60
2022-11-09T08:23:58.443Z,5.93
2022-11-09T08:26:24.752Z,5.97
2022-11-09T08:28:51.065Z,5.88
2022-11-09T08:31:17.374Z,5.82
2022-11-09T08:33:43.669Z,5.90
2022-11-09T08:36:15.732Z,5.55
2022-11-09T08:38:43.467Z,4.78
2022-11-09T08:41:13.572Z,4.82
2022-11-09T08:43:40.375Z,4.70
2022-11-09T08:46:06.751Z,5.20
2022-11-09T08:48:33.112Z,4.97
2022-11-09T08:51:00.047Z,4.97
2022-11-09T08:53:27.984Z,5.22
2022-11-09T08:55:54.416Z,4.70
2022-11-09T08:58:22.458Z,5.22
2022-11-09T09:00:49.063Z,5.82
2022-11-09T09:03:15.399Z,5.20
2022-11-09T09:05:41.758Z,5.20
2022-11-09T09:08:08.231Z,5.32
2022-11-09T09:10:38.012Z,4.97
2022-11-09T09:13:04.833Z,5.00
2022-11-09T09:15:31.809Z,4.53
2022-11-09T09:18:02.375Z,5.50
2022-11-09T09:20:29.233Z,4.18
2022-11-09T09:22:59.515Z,4.75
2022-11-09T09:25:26.845Z,4.30
2022-11-09T09:27:53.154Z,4.43
2022-11-09T09:30:19.660Z,4.10
2022-11-09T09:32:45.978Z,4.15
2022-11-09T09:35:12.806Z,3.72
2022-11-09T09:37:39.187Z,3.90
2022-11-09T09:40:06.340Z,3.58
2022-11-09T09:42:41.844Z,3.63
2022-11-09T09:50:37.999Z,2.47
2022-11-09T09:53:24.729Z,2.40
2022-11-09T09:56:26.767Z,2.85
2022-11-09T09:59:02.916Z,2.40
2022-11-09T10:01:37.590Z,2.17
2022-11-09T10:04:15.310Z,2.10
2022-11-09T10:07:03.732Z,2.38
2022-11-09T10:09:45.526Z,1.90
2022-11-09T10:12:36.989Z,1.67
2022-11-09T10:15:11.955Z,2.03
2022-11-09T10:17:41.411Z,1.70
2022-11-09T10:20:26.107Z,1.92
2022-11-09T10:23:13.019Z,1.67
2022-11-09T10:26:03.017Z,1.70
2022-11-09T10:28:47.671Z,1.65
2022-11-09T10:31:21.968Z,1.30
2022-11-09T10:33:57.389Z,1.33
2022-11-09T10:38:58.895Z,1.30
2022-11-09T10:41:41.042Z,1.20
2022-11-09T10:44:18.293Z,1.20
2022-11-09T10:47:07.989Z,1.20
2022-11-09T10:49:36.278Z,1.15
2022-11-09T10:52:03.431Z,1.30
2022-11-09T10:54:37.564Z,1.27
2022-11-09T10:57:20.390Z,1.02
2022-11-09T10:59:54.611Z,1.38
2022-11-09T11:02:26.707Z,1.10
2022-11-09T11:05:23.850Z,1.20
2022-11-09T11:07:50.424Z,1.10
2022-11-09T11:10:16.850Z,1.17
2022-11-09T11:12:46.530Z,1.60
2022-11-09T11:15:38.550Z,1.58
2022-11-09T11:18:15.067Z,1.25
2022-11-09T11:20:41.445Z,1.60
2022-11-09T11:23:19.935Z,1.50
2022-11-09T11:25:59.563Z,1.50
2022-11-09T11:28:39.873Z,1.40
2022-11-09T11:31:18.235Z,1.48
2022-11-09T11:33:45.183Z,1.30
2022-11-09T11:36:19.428Z,1.58
2022-11-09T11:38:57.349Z,2.03
2022-11-09T11:41:45.431Z,1.30
2022-11-09T11:45:02.949Z,1.30
2022-11-09T11:47:58.218Z,1.40
2022-11-09T11:50:46.558Z,1.40
2022-11-09T11:53:25.325Z,1.58
2022-11-09T11:56:13.219Z,1.20
2022-11-09T11:59:03.320Z,1.25
2022-11-09T12:01:35.846Z,1.20
2022-11-09T12:04:30.987Z,1.15
2022-11-09T12:07:35.356Z,1.40
2022-11-09T12:10:20.988Z,1.50
2022-11-09T12:13:31.467Z,1.70
2022-11-09T12:16:07.580Z,1.73
2022-11-09T12:19:10.590Z,1.50
2022-11-09T12:21:54.130Z,1.40
2022-11-09T12:24:31.585Z,2.13
2022-11-09T12:27:32.305Z,1.42
2022-11-09T12:30:22.209Z,1.77
2022-11-09T12:33:12.378Z,1.40
2022-11-09T12:35:50.770Z,1.25
2022-11-09T12:38:21.710Z,1.20
2022-11-09T12:40:58.404Z,1.20
2022-11-09T12:43:44.968Z,1.30
2022-11-09T12:46:14.661Z,1.13
2022-11-09T12:48:41.010Z,1.15
2022-11-09T12:51:08.485Z,1.00
2022-11-09T12:53:36.951Z,0.90
2022-11-09T12:56:17.250Z,0.80
2022-11-09T12:58:44.213Z,0.80
2022-11-09T13:01:13.023Z,0.90
2022-11-09T13:03:58.584Z,0.98
2022-11-09T13:06:28.904Z,1.00
2022-11-09T13:08:59.483Z,1.30
2022-11-09T13:11:35.745Z,1.92
2022-11-09T13:14:25.948Z,0.82
2022-11-09T13:16:55.723Z,0.90
2022-11-09T13:19:34.180Z,0.75
2022-11-09T13:22:02.238Z,0.95
2022-11-09T13:24:31.271Z,0.80
2022-11-09T13:27:02.646Z,0.90
2022-11-09T13:29:41.134Z,1.80
2022-11-09T13:32:10.691Z,1.02
2022-11-09T13:34:43.099Z,1.15
2022-11-09T13:37:34.258Z,1.33
2022-11-09T13:40:00.623Z,1.15
2022-11-09T13:42:33.553Z,0.90
2022-11-09T13:45:24.727Z,1.00
2022-11-09T13:47:52.085Z,1.17
2022-11-09T13:50:22.003Z,1.13
2022-11-09T13:52:53.507Z,1.02
2022-11-09T13:55:37.972Z,0.80
2022-11-09T13:58:18.594Z,1.33
2022-11-09T14:00:47.259Z,1.10
2022-11-09T14:03:26.338Z,1.15
2022-11-09T14:05:57.315Z,1.13
2022-11-09T14:08:27.767Z,1.10
2022-11-09T14:11:19.490Z,1.05
2022-11-09T14:14:12.620Z,1.20
2022-11-09T14:17:04.163Z,1.42
2022-11-09T14:20:04.855Z,1.67
2022-11-09T14:22:35.824Z,1.27
2022-11-09T14:25:20.840Z,1.08
2022-11-09T14:27:57.137Z,1.77
2022-11-09T14:30:25.226Z,1.55
2022-11-09T14:32:56.330Z,2.20
2022-11-09T14:35:25.039Z,1.25
2022-11-09T14:37:54.490Z,1.30
2022-11-09T14:40:28.975Z,1.33
2022-11-09T14:42:55.321Z,1.70
2022-11-09T14:45:22.712Z,1.55
2022-11-09T14:47:52.120Z,1.25
2022-11-09T14:50:23.467Z,1.35
2022-11-09T14:52:52.723Z,1.67
2022-11-09T14:55:21.237Z,1.88
2022-11-09T14:57:49.725Z,2.78
2022-11-09T15:00:35.030Z,1.48
2022-11-09T15:03:22.463Z,1.35
2022-11-09T15:05:48.845Z,1.70
2022-11-09T15:08:22.499Z,1.55
2022-11-09T15:10:52.586Z,1.45
2022-11-09T15:13:27.787Z,1.45
2022-11-09T15:15:54.846Z,1.50
2022-11-09T15:18:33.905Z,1.25
2022-11-09T15:21:25.541Z,1.73
2022-11-09T15:24:03.701Z,2.22
2022-11-09T15:26:44.782Z,1.50
2022-11-09T15:29:34.819Z,1.40
2022-11-09T15:32:17.808Z,1.15
2022-11-09T15:34:56.205Z,1.60
2022-11-09T15:37:27.948Z,1.42
2022-11-09T15:39:54.238Z,1.40
2022-11-09T15:42:21.224Z,1.23
2022-11-09T15:44:55.429Z,1.60
2022-11-09T15:47:33.765Z,1.27
2022-11-09T15:50:03.563Z,1.42
2022-11-09T15:52:30.215Z,1.83
2022-11-09T15:54:56.842Z,1.30
2022-11-09T15:57:23.201Z,2.33
2022-11-09T15:59:51.275Z,2.28
2022-11-09T16:02:19.098Z,1.55
2022-11-09T16:04:45.419Z,2.00
2022-11-09T16:07:14.927Z,3.10
2022-11-09T16:09:41.990Z,2.50
2022-11-09T16:12:08.814Z,2.10
2022-11-09T16:14:35.550Z,2.38
2022-11-09T16:17:02.140Z,1.80
2022-11-09T16:19:28.544Z,1.58
2022-11-09T16:21:54.898Z,1.67
2022-11-09T16:24:21.387Z,1.75
2022-11-09T16:26:47.829Z,1.70
2022-11-09T16:29:14.152Z,1.77
2022-11-09T16:31:51.540Z,1.90
2022-11-09T16:34:18.923Z,1.73
2022-11-09T16:36:50.917Z,1.70
2022-11-09T16:39:20.506Z,2.08
2022-11-09T16:41:50.015Z,1.73
2022-11-09T16:44:19.969Z,2.55
2022-11-09T16:46:47.879Z,3.22
2022-11-09T16:49:17.823Z,3.35
2022-11-09T16:51:44.277Z,2.70
2022-11-09T16:54:10.641Z,3.10
2022-11-09T16:56:36.963Z,2.70
2022-11-09T16:59:03.474Z,2.80
2022-11-09T17:01:29.819Z,3.50
2022-11-09T17:03:57.451Z,3.10
2022-11-09T17:06:24.141Z,2.05
2022-11-09T17:08:51.052Z,2.40
2022-11-09T17:11:17.626Z,2.25
2022-11-09T17:13:44.094Z,2.13
2022-11-09T17:16:12.620Z,3.17
2022-11-09T17:18:39.490Z,3.08
2022-11-09T17:21:10.838Z,3.78
2022-11-09T17:23:37.636Z,3.03
2022-11-09T17:26:05.574Z,3.05
2022-11-09T17:28:32.308Z,3.20
2022-11-09T17:30:59.032Z,2.90
2022-11-09T17:33:25.347Z,2.17
2022-11-09T17:35:59.747Z,2.83
2022-11-09T17:38:26.419Z,2.80
2022-11-09T17:40:54.316Z,3.22
2022-11-09T17:43:20.744Z,3.33
2022-11-09T17:45:47.022Z,2.72
2022-11-09T17:48:13.347Z,3.50
2022-11-09T17:50:39.699Z,3.33
2022-11-09T17:53:05.992Z,3.00
2022-11-09T17:55:32.288Z,1.98
2022-11-09T17:57:58.592Z,2.30
2022-11-09T18:00:25.062Z,2.45
2022-11-09T18:02:55.379Z,2.30
2022-11-09T18:05:21.678Z,2.80
2022-11-09T18:07:47.987Z,4.15
2022-11-09T18:10:14.339Z,4.35
2022-11-09T18:12:40.619Z,4.70
2022-11-09T18:15:07.212Z,3.33
2022-11-09T18:17:33.630Z,4.60
2022-11-09T18:19:59.921Z,4.45
2022-11-09T18:22:26.206Z,5.22
2022-11-09T18:24:52.569Z,5.45
2022-11-09T18:27:18.897Z,3.70
2022-11-09T18:29:45.193Z,2.90
2022-11-09T18:32:11.519Z,3.42
2022-11-09T18:34:37.834Z,4.60
2022-11-09T18:37:04.161Z,6.47
2022-11-09T18:39:30.810Z,2.75
2022-11-09T18:42:00.165Z,2.55
2022-11-09T18:44:26.458Z,3.70
2022-11-09T18:46:52.744Z,3.10
2022-11-09T18:49:19.944Z,2.67
2022-11-09T18:51:46.260Z,2.53
2022-11-09T18:54:12.592Z,3.15
2022-11-09T18:56:39.023Z,4.88
2022-11-09T18:59:05.567Z,2.95
2022-11-09T19:01:31.909Z,1.90
2022-11-09T19:04:01.520Z,3.05
2022-11-09T19:06:28.248Z,3.45
2022-11-09T19:09:13.564Z,2.33
2022-11-09T19:11:39.979Z,2.10
2022-11-09T19:14:06.309Z,2.00
2022-11-09T19:16:32.762Z,2.28
2022-11-09T19:18:59.070Z,2.58
2022-11-09T19:21:25.828Z,2.10
2022-11-09T19:23:52.798Z,2.25
2022-11-09T19:26:19.967Z,2.38
2022-11-09T19:28:46.341Z,1.73
2022-11-09T19:31:14.710Z,2.10
2022-11-09T19:33:41.016Z,1.80
2022-11-09T19:36:29.095Z,1.90
2022-11-09T19:38:55.662Z,2.03
2022-11-09T19:41:22.160Z,2.20
2022-11-09T19:43:49.671Z,1.80
2022-11-09T19:46:16.651Z,2.50
2022-11-09T19:48:47.557Z,3.30
2022-11-09T19:51:16.483Z,2.50
2022-11-09T19:53:48.581Z,2.88
2022-11-09T19:56:14.862Z,3.25
2022-11-09T19:58:41.227Z,3.38
2022-11-09T20:01:11.560Z,2.78
2022-11-09T20:03:38.175Z,3.03
2022-11-09T20:06:06.659Z,4.80
2022-11-09T20:08:34.695Z,3.20
2022-11-09T20:11:06.575Z,7.40
2022-11-09T20:13:33.526Z,8.68
2022-11-09T20:16:05.326Z,7.38
2022-11-09T20:18:35.282Z,9.80
2022-11-09T20:21:02.145Z,8.15
2022-11-09T20:23:28.502Z,3.83
2022-11-09T20:26:09.534Z,4.65
2022-11-09T20:28:35.875Z,5.65
2022-11-09T20:31:09.260Z,3.35
2022-11-09T20:33:35.562Z,3.58
2022-11-09T20:36:01.830Z,3.40
2022-11-09T20:38:28.210Z,3.60
2022-11-09T20:40:56.010Z,3.17
2022-11-09T20:43:23.487Z,3.28
2022-11-09T20:45:50.633Z,2.88
2022-11-09T20:48:38.707Z,2.25
2022-11-09T20:51:05.350Z,4.40
2022-11-09T20:53:31.963Z,3.03
2022-11-09T20:55:58.338Z,3.42
2022-11-09T20:58:26.831Z,1.90
2022-11-09T21:01:20.435Z,1.92
2022-11-09T21:03:48.725Z,2.63
2022-11-09T21:06:15.192Z,2.90
2022-11-09T21:08:52.540Z,1.85
2022-11-09T21:11:19.711Z,1.90
2022-11-09T21:13:53.676Z,1.50
2022-11-09T21:16:21.566Z,1.70
2022-11-09T21:18:48.669Z,2.10
2022-11-09T21:21:20.323Z,2.10
2022-11-09T21:24:05.484Z,2.10
2022-11-09T21:26:50.740Z,2.38
2022-11-09T21:29:41.029Z,2.22
2022-11-09T21:32:08.228Z,2.20
2022-11-09T21:34:37.036Z,2.67
2022-11-09T21:37:04.852Z,2.42
2022-11-09T21:39:31.333Z,2.78
2022-11-09T21:41:57.636Z,2.10
2022-11-09T21:44:24.345Z,2.20
2022-11-09T21:46:50.660Z,2.40
2022-11-09T21:49:16.930Z,2.10
2022-11-09T21:51:43.338Z,2.00
2022-11-09T21:54:10.379Z,2.70
2022-11-09T21:56:36.875Z,3.20
2022-11-09T21:59:04.157Z,2.47
2022-11-09T22:01:30.533Z,2.17
2022-11-09T22:03:57.016Z,1.98
2022-11-09T22:06:23.589Z,2.50
2022-11-09T22:08:51.397Z,2.42
2022-11-09T22:11:20.031Z,2.10
2022-11-09T22:14:04.842Z,2.08
2022-11-09T22:16:33.812Z,2.15
2022-11-09T22:19:22.037Z,2.40
2022-11-09T22:21:48.342Z,3.15
2022-11-09T22:24:14.662Z,2.40
2022-11-09T22:26:40.970Z,2.47
2022-11-09T22:29:07.356Z,2.38
2022-11-09T22:31:33.686Z,2.88
2022-11-09T22:34:00.049Z,2.78
2022-11-09T22:36:26.360Z,3.80
2022-11-09T22:38:52.678Z,2.38
2022-11-09T22:41:19.488Z,3.03
2022-11-09T22:43:45.849Z,2.33
2022-11-09T22:46:14.842Z,2.28
2022-11-09T22:48:43.120Z,3.03
2022-11-09T22:51:11.910Z,2.60
2022-11-09T22:53:38.399Z,2.40
2022-11-09T22:56:05.585Z,2.53
2022-11-09T22:58:32.030Z,2.40
2022-11-09T23:01:16.984Z,2.40
2022-11-09T23:03:43.358Z,2.40
2022-11-09T23:06:13.127Z,2.67
2022-11-09T23:08:39.472Z,2.45
2022-11-09T23:11:14.563Z,2.60
2022-11-09T23:13:41.444Z,2.60
2022-11-09T23:16:10.360Z,2.42
2022-11-09T23:18:55.987Z,2.13
2022-11-09T23:21:33.526Z,2.50
2022-11-09T23:24:04.933Z,2.65
2022-11-09T23:26:32.772Z,1.95
2022-11-09T23:28:59.931Z,2.20
2022-11-09T23:31:26.894Z,2.58
2022-11-09T23:33:57.385Z,2.47
2022-11-09T23:36:25.738Z,2.22
2022-11-09T23:38:52.164Z,2.03
2022-11-09T23:41:19.028Z,2.72
2022-11-09T23:43:49.333Z,2.10
2022-11-09T23:46:16.991Z,2.60
2022-11-09T23:48:43.337Z,2.78
2022-11-09T23:51:10.238Z,2.40
2022-11-09T23:53:36.699Z,2.60
2022-11-09T23:56:08.765Z,2.28
2022-11-09T23:58:35.146Z,3.03
